Time;durP1;ratioP1;P1;durP2;ratioP2;P2;SDS_P1;SDS_P2;PMS_P1;PMS_P2;Temp;Humidity;BMP_temperature;BMP_pressure;BME280_temperature;BME280_humidity;BME280_pressure;Samples;Min_cycle;Max_cycle;Signal;HPM_P1;HPM_P2
2021/12/01 00:00:21;;;;;;;14.27;13.13;;;;;;;-2.58;75.31;92318.94;5071444;28;20324;-74
2021/12/01 00:02:53;;;;;;;23.30;18.27;;;;;;;-2.87;75.79;92356.06;5070177;28;20195;-74
2021/12/01 00:05:21;;;;;;;23.20;17.33;;;;;;;-2.91;75.74;92370.22;5070748;28;20303;-74
2021/12/01 00:07:47;;;;;;;15.60;14.27;;;;;;;-2.96;76.44;92331.75;5070854;28;20205;-74
2021/12/01 00:10:13;;;;;;;15.33;13.80;;;;;;;-2.83;79.37;92348.78;5070530;28;20256;-74
2021/12/01 00:12:38;;;;;;;15.67;14.33;;;;;;;-2.73;78.58;92362.66;5070032;28;20196;-73
2021/12/01 00:15:06;;;;;;;16.20;14.60;;;;;;;-2.79;78.39;92322.63;5069628;28;20225;-73
2021/12/01 00:17:31;;;;;;;16.30;15.00;;;;;;;-2.82;79.25;92369.00;5072329;28;20196;-74
2021/12/01 00:19:59;;;;;;;16.07;14.60;;;;;;;-2.81;78.65;92354.44;5069998;28;20233;-74
2021/12/01 00:22:25;;;;;;;16.00;14.70;;;;;;;-2.80;78.83;92361.91;5070193;28;20182;-73
2021/12/01 00:24:50;;;;;;;16.30;14.80;;;;;;;-2.76;77.72;92286.47;5069137;28;20299;-74
2021/12/01 00:27:16;;;;;;;17.43;15.83;;;;;;;-2.88;79.40;92338.41;5070221;28;20189;-73
2021/12/01 00:29:41;;;;;;;16.17;14.67;;;;;;;-2.84;78.54;92339.53;5070267;28;20233;-73
2021/12/01 00:32:08;;;;;;;17.33;15.63;;;;;;;-3.06;80.47;92313.53;5071584;28;20248;-74
2021/12/01 00:34:34;;;;;;;17.60;15.93;;;;;;;-2.81;79.25;92349.34;5066891;28;20229;-74
2021/12/01 00:37:00;;;;;;;16.43;15.00;;;;;;;-3.16;80.94;92308.09;5069219;28;20225;-74
2021/12/01 00:39:25;;;;;;;15.73;14.43;;;;;;;-3.17;80.77;92314.19;5070388;28;20225;-74
2021/12/01 00:41:52;;;;;;;16.67;14.93;;;;;;;-3.27;80.17;92318.94;5069498;28;20267;-73
2021/12/01 00:44:17;;;;;;;17.27;15.77;;;;;;;-3.41;81.00;92338.63;5070997;28;20245;-73
2021/12/01 00:47:03;;;;;;;16.90;15.50;;;;;;;-3.15;80.09;92342.06;5069236;28;20227;-73
2021/12/01 00:49:31;;;;;;;16.90;14.53;;;;;;;-3.12;80.27;92286.28;5068558;28;20703;-74
2021/12/01 00:51:57;;;;;;;16.13;14.67;;;;;;;-3.28;81.65;92300.31;5070751;28;20185;-74
2021/12/01 00:54:23;;;;;;;16.10;14.63;;;;;;;-3.53;80.79;92306.28;5069331;28;20225;-73
2021/12/01 00:56:49;;;;;;;16.40;14.93;;;;;;;-3.52;81.60;92325.72;5070383;28;20201;-74
2021/12/01 00:59:16;;;;;;;17.70;15.77;;;;;;;-3.30;81.31;92306.59;5069682;28;20286;-73
2021/12/01 01:01:42;;;;;;;16.27;14.67;;;;;;;-3.54;81.50;92327.69;5067970;28;20726;-73
2021/12/01 01:04:08;;;;;;;16.70;15.23;;;;;;;-3.43;81.23;92329.59;5070456;28;20229;-74
2021/12/01 01:06:33;;;;;;;16.90;15.40;;;;;;;-3.34;80.39;92297.78;5068604;28;20209;-74
2021/12/01 01:09:00;;;;;;;16.17;14.57;;;;;;;-3.32;80.77;92322.13;5068498;28;20217;-74
2021/12/01 01:16:55;;;;;;;15.17;13.97;;;;;;;-3.41;81.28;92312.34;5069447;28;20196;-73
2021/12/01 01:19:21;;;;;;;14.90;13.47;;;;;;;-3.62;82.08;92284.53;5069634;28;20233;-74
2021/12/01 01:21:49;;;;;;;15.67;14.17;;;;;;;-3.34;80.92;92330.94;5068572;28;20220;-74
2021/12/01 01:24:16;;;;;;;15.37;14.10;;;;;;;-3.19;81.14;92300.84;5067302;28;20243;-74
2021/12/01 01:26:41;;;;;;;15.27;13.97;;;;;;;-3.13;80.40;92340.88;5070003;28;20201;-73
2021/12/01 01:29:07;;;;;;;16.13;14.43;;;;;;;-3.47;80.23;92339.41;5068410;28;20221;-74
2021/12/01 01:31:34;;;;;;;15.37;13.77;;;;;;;-3.36;81.14;92346.44;5069625;28;20185;-74
2021/12/01 01:34:00;;;;;;;15.17;13.67;;;;;;;-2.97;81.09;92339.63;5067651;28;20229;-74
2021/12/01 01:36:27;;;;;;;14.17;13.03;;;;;;;-3.21;81.27;92369.19;5069176;28;20185;-74
2021/12/01 01:38:53;;;;;;;15.50;13.90;;;;;;;-3.17;82.07;92339.72;5069489;28;20364;-74
2021/12/01 01:41:19;;;;;;;15.93;14.57;;;;;;;-3.15;81.45;92357.38;5069040;28;20212;-74
2021/12/01 01:43:47;;;;;;;15.33;14.03;;;;;;;-2.97;81.54;92363.38;5068054;28;20240;-73
2021/12/01 01:46:13;;;;;;;15.00;13.63;;;;;;;-2.94;80.60;92380.84;5070275;28;20185;-73
2021/12/01 01:48:52;;;;;;;14.93;13.33;;;;;;;-2.73;80.33;92356.78;5068331;28;20232;-74
2021/12/01 01:51:21;;;;;;;16.07;14.43;;;;;;;-2.73;80.65;92349.09;5067945;28;20189;-73
2021/12/01 01:53:48;;;;;;;15.83;14.10;;;;;;;-2.77;80.21;92319.88;5068271;28;20235;-74
2021/12/01 01:56:14;;;;;;;15.77;14.13;;;;;;;-2.87;80.59;92305.00;5067566;28;20213;-73
2021/12/01 01:58:39;;;;;;;14.97;13.57;;;;;;;-3.18;80.05;92358.56;5069290;28;20248;-73
2021/12/01 02:01:16;;;;;;;13.97;12.80;;;;;;;-2.88;79.16;92346.06;5068916;28;20240;-73
2021/12/01 02:03:45;;;;;;;13.70;12.40;;;;;;;-2.99;80.72;92296.44;5066802;28;20230;-74
2021/12/01 02:06:12;;;;;;;15.20;13.87;;;;;;;-3.32;80.71;92311.13;5068912;28;20185;-74
2021/12/01 02:08:40;;;;;;;14.47;13.33;;;;;;;-3.15;81.89;92330.09;5067993;28;20244;-74
2021/12/01 02:11:10;;;;;;;14.20;13.13;;;;;;;-3.01;82.76;92323.94;5068018;28;20178;-74
2021/12/01 02:13:36;;;;;;;13.40;12.20;;;;;;;-3.03;78.92;92322.53;5069180;28;20290;-73
2021/12/01 02:16:04;;;;;;;14.80;13.37;;;;;;;-3.03;80.36;92320.78;5067836;28;20203;-74
2021/12/01 02:18:30;;;;;;;15.43;14.13;;;;;;;-2.89;82.17;92267.88;5068285;28;20237;-73
2021/12/01 02:21:01;;;;;;;16.20;13.80;;;;;;;-2.95;78.66;92315.44;5069089;28;20228;-74
2021/12/01 02:23:26;;;;;;;15.60;14.53;;;;;;;-2.62;78.91;92303.25;5067309;28;20229;-73
2021/12/01 02:25:52;;;;;;;14.67;13.63;;;;;;;-2.76;79.13;92243.03;5068289;28;20199;-73
2021/12/01 02:28:18;;;;;;;13.77;12.87;;;;;;;-2.91;77.60;92259.66;5067634;28;20242;-74
2021/12/01 02:30:43;;;;;;;12.70;11.90;;;;;;;-2.49;76.46;92305.72;5069486;28;20189;-73
2021/12/01 02:33:08;;;;;;;14.33;13.23;;;;;;;-2.71;79.40;92284.06;5068793;28;20186;-73
2021/12/01 02:35:34;;;;;;;13.10;11.77;;;;;;;-2.87;79.82;92292.22;5065474;28;20256;-73
2021/12/01 02:38:03;;;;;;;13.87;12.87;;;;;;;-2.77;79.31;92305.31;5068731;28;20201;-73
2021/12/01 02:40:28;;;;;;;13.23;12.23;;;;;;;-2.80;80.20;92287.84;5068603;28;20213;-73
2021/12/01 02:42:54;;;;;;;12.50;11.60;;;;;;;-2.86;80.91;92281.00;5067570;28;20189;-73
2021/12/01 02:45:19;;;;;;;14.47;13.20;;;;;;;-2.87;80.29;92310.09;5067926;28;20229;-74
2021/12/01 02:47:46;;;;;;;11.73;11.03;;;;;;;-2.93;78.24;92290.50;5068148;28;20202;-74
2021/12/01 02:50:11;;;;;;;13.53;12.40;;;;;;;-3.35;81.05;92225.53;5068401;28;20247;-74
2021/12/01 02:52:37;;;;;;;12.87;11.87;;;;;;;-2.98;80.56;92277.56;5068906;28;20186;-73
2021/12/01 02:55:09;;;;;;;11.90;11.00;;;;;;;-2.91;80.89;92306.38;5067939;28;20228;-73
2021/12/01 02:57:49;;;;;;;14.03;12.93;;;;;;;-2.83;80.36;92326.56;5069210;28;20197;-73
2021/12/01 03:00:17;;;;;;;14.07;13.07;;;;;;;-2.78;80.50;92329.28;5068262;28;20236;-74
2021/12/01 03:02:44;;;;;;;14.23;13.23;;;;;;;-3.00;81.26;92317.81;5067250;28;20208;-74
2021/12/01 03:05:10;;;;;;;14.20;13.03;;;;;;;-2.82;80.67;92328.16;5071230;28;20308;-74
2021/12/01 03:07:37;;;;;;;12.50;11.43;;;;;;;-2.85;81.01;92338.78;5065691;28;20204;-73
2021/12/01 03:10:05;;;;;;;13.33;12.30;;;;;;;-2.73;81.82;92306.47;5071747;28;20262;-74
2021/12/01 03:12:38;;;;;;;13.07;12.07;;;;;;;-2.95;82.31;92307.00;5072076;28;20189;-74
2021/12/01 03:15:06;;;;;;;13.70;12.70;;;;;;;-2.70;81.45;92315.50;5071679;28;20243;-73
2021/12/01 03:17:33;;;;;;;13.20;12.30;;;;;;;-2.74;81.08;92289.56;5072188;28;20201;-74
2021/12/01 03:19:59;;;;;;;13.40;12.23;;;;;;;-2.73;81.25;92337.13;5071899;28;20228;-74
2021/12/01 03:22:25;;;;;;;13.13;12.23;;;;;;;-2.57;79.40;92323.06;5070759;28;20201;-73
2021/12/01 03:24:51;;;;;;;13.63;12.47;;;;;;;-2.95;80.20;92295.03;5071012;28;20232;-74
2021/12/01 03:27:17;;;;;;;12.57;11.67;;;;;;;-2.89;79.50;92347.81;5072251;28;20201;-73
2021/12/01 03:29:48;;;;;;;13.20;12.20;;;;;;;-2.76;79.29;92301.00;5070540;28;20232;-73
2021/12/01 03:32:15;;;;;;;12.87;11.80;;;;;;;-2.96;79.89;92285.00;5071585;28;20197;-78
2021/12/01 03:34:41;;;;;;;13.23;12.37;;;;;;;-3.01;80.66;92292.50;5070630;28;20228;-82
2021/12/01 03:37:08;;;;;;;13.90;12.80;;;;;;;-2.69;81.17;92311.97;5071502;28;20196;-81
2021/12/01 03:39:33;;;;;;;12.63;11.70;;;;;;;-2.87;81.64;92335.63;5071134;28;20794;-84
2021/12/01 03:41:59;;;;;;;12.27;11.20;;;;;;;-2.77;79.84;92307.09;5071248;28;20216;-84
2021/12/01 03:44:24;;;;;;;13.90;12.70;;;;;;;-2.68;81.10;92327.09;5070069;28;20256;-83
2021/12/01 03:46:51;;;;;;;13.07;12.13;;;;;;;-3.16;80.17;92274.94;5072102;28;20245;-84
2021/12/01 03:49:17;;;;;;;13.87;12.87;;;;;;;-2.57;80.86;92336.66;5069192;28;20229;-85
2021/12/01 03:51:42;;;;;;;13.33;12.23;;;;;;;-2.61;81.14;92355.91;5071328;28;20231;-83
2021/12/01 03:54:08;;;;;;;14.37;13.27;;;;;;;-2.60;81.81;92316.59;5071421;28;20229;-84
2021/12/01 03:56:34;;;;;;;13.97;12.90;;;;;;;-2.68;82.17;92328.84;5071275;28;20221;-85
2021/12/01 03:59:00;;;;;;;14.33;13.03;;;;;;;-2.55;82.43;92316.00;5069934;28;20225;-85
2021/12/01 04:01:26;;;;;;;13.30;12.37;;;;;;;-2.27;81.88;92331.69;5071409;28;20255;-83
2021/12/01 04:03:51;;;;;;;13.93;12.83;;;;;;;-2.11;79.66;92337.06;5068560;28;20225;-84
2021/12/01 04:06:17;;;;;;;13.40;12.43;;;;;;;-1.99;80.95;92330.28;5072341;28;20272;-85
2021/12/01 04:08:42;;;;;;;13.13;12.03;;;;;;;-2.08;81.36;92316.19;5060260;28;20280;-84
2021/12/01 04:11:08;;;;;;;13.87;12.97;;;;;;;-2.13;80.70;92315.25;5044796;28;20236;-85
2021/12/01 04:13:33;;;;;;;13.93;12.87;;;;;;;-2.15;80.81;92301.91;5076563;28;20241;-85
2021/12/01 04:15:59;;;;;;;14.03;12.70;;;;;;;-2.11;81.33;92305.59;5068613;28;20213;-85
2021/12/01 04:18:24;;;;;;;13.87;12.80;;;;;;;-1.97;81.06;92299.38;5070206;28;20228;-83
2021/12/01 04:20:50;;;;;;;13.10;12.07;;;;;;;-2.03;82.43;92308.69;5071308;28;20237;-84
2021/12/01 04:23:15;;;;;;;12.77;11.97;;;;;;;-1.98;80.29;92296.03;5070259;28;20198;-84
2021/12/01 04:25:41;;;;;;;11.83;10.93;;;;;;;-1.95;81.33;92295.63;5071339;28;20197;-86
2021/12/01 04:28:06;;;;;;;11.10;10.50;;;;;;;-1.19;77.28;92275.50;5069460;28;20209;-84
2021/12/01 04:30:32;;;;;;;11.97;11.20;;;;;;;-0.86;77.81;92282.75;5070771;28;20227;-84
2021/12/01 04:32:58;;;;;;;9.37;9.07;;;;;;;0.26;74.08;92278.22;5071129;28;20212;-85
2021/12/01 04:35:25;;;;;;;10.30;9.90;;;;;;;0.33;73.64;92275.53;5069075;28;20217;-85
2021/12/01 04:37:52;;;;;;;10.70;10.13;;;;;;;0.28;72.23;92299.28;5071208;28;20224;-83
2021/12/01 04:40:17;;;;;;;12.37;11.40;;;;;;;-0.26;74.79;92266.25;5067327;28;20221;-77
2021/12/01 04:42:43;;;;;;;9.93;9.40;;;;;;;0.40;74.01;92297.50;5065889;28;20201;-74
2021/12/01 04:45:18;;;;;;;10.10;9.60;;;;;;;1.05;70.51;92305.75;5068770;28;20221;-75
2021/12/01 04:47:50;;;;;;;9.67;9.03;;;;;;;1.09;71.41;92317.91;5067306;28;20271;-74
2021/12/01 04:50:17;;;;;;;9.53;9.13;;;;;;;1.21;70.80;92316.09;5068337;28;20217;-74
2021/12/01 04:52:44;;;;;;;9.37;9.07;;;;;;;1.42;70.06;92323.16;5068834;28;20248;-74
2021/12/01 04:55:10;;;;;;;9.27;8.97;;;;;;;1.23;72.67;92311.50;5065445;28;20233;-74
2021/12/01 04:57:41;;;;;;;9.00;8.70;;;;;;;1.39;70.18;92333.91;5069498;28;20204;-74
2021/12/01 05:00:08;;;;;;;9.20;8.80;;;;;;;1.70;69.16;92324.16;5066110;28;20232;-73
2021/12/01 05:02:34;;;;;;;9.43;9.07;;;;;;;1.77;70.17;92327.34;5069037;28;20197;-75
2021/12/01 05:04:59;;;;;;;9.40;8.73;;;;;;;1.72;69.88;92330.63;5069196;28;20316;-73
2021/12/01 05:07:25;;;;;;;8.93;8.63;;;;;;;1.52;72.07;92331.06;5068023;28;20748;-73
2021/12/01 05:09:51;;;;;;;8.97;8.47;;;;;;;2.18;69.13;92368.19;5068504;28;20210;-75
2021/12/01 05:12:17;;;;;;;8.80;8.50;;;;;;;2.31;66.79;92347.25;5067477;28;20244;-74
2021/12/01 05:14:42;;;;;;;9.23;8.67;;;;;;;2.54;66.21;92357.38;5071702;28;20225;-74
2021/12/01 05:17:08;;;;;;;10.80;10.03;;;;;;;2.33;69.09;92376.13;5068524;28;20200;-72
2021/12/01 05:19:35;;;;;;;8.37;8.07;;;;;;;2.03;70.85;92386.72;5066957;28;20230;-74
2021/12/01 05:22:00;;;;;;;9.37;9.00;;;;;;;1.96;71.02;92385.31;5067183;28;20213;-69
2021/12/01 05:24:26;;;;;;;9.57;9.17;;;;;;;1.89;70.37;92364.88;5067334;28;20234;-71
2021/12/01 05:26:51;;;;;;;9.87;9.37;;;;;;;1.85;73.53;92347.56;5068083;28;20583;-71
2021/12/01 05:29:17;;;;;;;10.80;10.20;;;;;;;1.99;69.27;92382.28;5066237;28;20225;-70
2021/12/01 05:31:42;;;;;;;10.90;10.50;;;;;;;1.85;71.84;92399.03;5068838;28;20265;-72
2021/12/01 05:34:08;;;;;;;11.90;11.30;;;;;;;1.32;70.63;92379.53;5059711;28;20273;-75
2021/12/01 05:36:34;;;;;;;12.60;11.87;;;;;;;0.31;72.29;92332.25;5048419;28;20255;-75
2021/12/01 05:39:00;;;;;;;10.30;9.50;;;;;;;0.54;77.70;92355.34;5054681;28;20228;-75
2021/12/01 05:41:25;;;;;;;11.80;11.20;;;;;;;0.72;72.97;92332.06;5066517;28;20444;-74
2021/12/01 05:43:51;;;;;;;11.70;10.90;;;;;;;0.86;71.76;92343.66;5067429;28;20217;-74
2021/12/01 05:46:17;;;;;;;11.30;10.50;;;;;;;0.58;73.13;92338.47;5067836;28;20231;-74
2021/12/01 05:48:42;;;;;;;10.13;9.73;;;;;;;0.81;76.34;92358.97;5067277;28;20228;-74
2021/12/01 05:51:08;;;;;;;10.33;9.93;;;;;;;1.01;75.48;92346.53;5067090;28;20259;-74
2021/12/01 05:53:34;;;;;;;9.63;9.13;;;;;;;2.11;70.64;92342.59;5067023;28;20225;-74
2021/12/01 05:55:59;;;;;;;9.00;8.70;;;;;;;2.03;73.07;92360.19;5067280;28;20342;-75
2021/12/01 05:58:25;;;;;;;13.10;12.37;;;;;;;1.81;70.16;92392.75;5067547;28;20251;-74
2021/12/01 06:00:51;;;;;;;11.27;10.70;;;;;;;1.10;70.63;92376.03;5068293;28;20247;-75
2021/12/01 06:03:17;;;;;;;9.77;9.23;;;;;;;1.60;73.80;92374.41;5068692;28;20258;-74
2021/12/01 06:05:44;;;;;;;9.73;9.43;;;;;;;2.37;69.81;92362.56;5067478;28;20201;-75
2021/12/01 06:08:10;;;;;;;10.53;10.00;;;;;;;2.54;69.40;92357.38;5069482;28;20196;-75
2021/12/01 06:10:35;;;;;;;8.60;8.30;;;;;;;2.90;68.42;92374.91;5068675;28;20212;-75
2021/12/01 06:13:01;;;;;;;9.57;9.07;;;;;;;3.17;67.47;92378.38;5068886;28;20556;-74
2021/12/01 06:15:27;;;;;;;8.17;7.90;;;;;;;2.87;68.68;92383.09;5069222;28;20225;-75
2021/12/01 06:17:53;;;;;;;10.13;9.63;;;;;;;2.66;71.30;92391.59;5066621;28;20181;-75
2021/12/01 06:20:18;;;;;;;8.80;8.40;;;;;;;2.77;70.58;92395.88;5067744;28;20237;-75
2021/12/01 06:22:44;;;;;;;9.90;9.57;;;;;;;2.91;69.91;92399.69;5069047;28;20192;-75
2021/12/01 06:25:11;;;;;;;9.37;8.97;;;;;;;3.01;69.06;92415.28;5068046;28;20241;-75
2021/12/01 06:27:37;;;;;;;7.90;7.63;;;;;;;3.23;65.79;92382.56;5070082;28;20272;-75
2021/12/01 06:30:05;;;;;;;9.37;9.00;;;;;;;3.21;68.63;92406.00;5068146;28;20228;-75
2021/12/01 06:32:31;;;;;;;11.17;10.33;;;;;;;2.43;65.78;92420.09;5074884;28;20211;-75
2021/12/01 06:34:56;;;;;;;14.53;13.43;;;;;;;1.58;66.99;92407.31;5069141;28;20269;-75
2021/12/01 06:37:21;;;;;;;15.80;14.50;;;;;;;1.03;68.21;92421.63;5068417;28;20204;-75
2021/12/01 06:39:47;;;;;;;15.27;13.87;;;;;;;0.69;71.97;92445.53;5072177;28;20217;-75
2021/12/01 06:42:13;;;;;;;15.57;14.07;;;;;;;0.43;73.23;92456.25;5072144;28;20209;-75
2021/12/01 06:44:39;;;;;;;16.40;14.80;;;;;;;0.50;71.64;92427.91;5071843;28;20289;-75
2021/12/01 06:47:04;;;;;;;14.93;13.73;;;;;;;0.62;72.97;92432.03;5073811;28;20185;-75
2021/12/01 06:49:30;;;;;;;15.57;14.17;;;;;;;0.48;73.32;92446.09;5071801;28;20229;-75
2021/12/01 06:51:56;;;;;;;19.83;17.60;;;;;;;0.12;73.89;92420.59;5071267;28;20252;-75
2021/12/01 06:54:21;;;;;;;16.90;15.13;;;;;;;0.34;72.95;92449.09;5072046;28;20228;-75
2021/12/01 06:56:47;;;;;;;15.47;13.93;;;;;;;0.34;71.62;92459.34;5071781;28;20197;-75
2021/12/01 06:59:12;;;;;;;15.13;13.73;;;;;;;-0.02;72.37;92452.56;5072379;28;20233;-75
2021/12/01 07:01:38;;;;;;;15.37;13.97;;;;;;;-0.25;75.23;92467.88;5071492;28;20232;-75
2021/12/01 07:04:04;;;;;;;24.50;19.03;;;;;;;-0.49;75.62;92450.81;5071921;28;20233;-73
2021/12/01 07:06:29;;;;;;;17.63;15.80;;;;;;;-0.73;75.45;92441.47;5072227;28;20193;-75
2021/12/01 07:08:59;;;;;;;14.70;13.40;;;;;;;-0.37;74.16;92461.91;5071064;28;20221;-74
2021/12/01 07:11:24;;;;;;;15.93;14.50;;;;;;;-0.34;76.96;92464.03;5072162;28;20244;-74
2021/12/01 07:13:50;;;;;;;15.67;14.37;;;;;;;-0.32;76.12;92432.06;5070344;28;20232;-73
2021/12/01 07:16:15;;;;;;;17.70;15.90;;;;;;;-0.22;76.97;92452.06;5071907;28;20207;-73
2021/12/01 07:18:41;;;;;;;16.90;15.43;;;;;;;0.04;74.93;92449.13;5073622;28;20233;-73
2021/12/01 07:21:06;;;;;;;14.80;13.40;;;;;;;0.23;73.83;92467.81;5069137;28;20221;-74
2021/12/01 07:23:31;;;;;;;15.33;14.17;;;;;;;0.23;73.96;92476.28;5070625;28;20245;-74
2021/12/01 07:25:58;;;;;;;15.43;14.13;;;;;;;0.56;74.76;92450.13;5071634;28;20190;-73
2021/12/01 07:28:23;;;;;;;17.57;15.97;;;;;;;0.78;71.74;92466.56;5070241;28;20296;-73
2021/12/01 07:30:49;;;;;;;16.93;15.47;;;;;;;0.63;72.96;92453.34;5072645;28;20194;-73
2021/12/01 07:33:14;;;;;;;15.70;14.30;;;;;;;0.70;70.72;92447.09;5071450;28;20186;-73
2021/12/01 07:35:40;;;;;;;28.23;20.50;;;;;;;0.75;74.14;92449.00;5073157;28;20201;-79
2021/12/01 07:38:05;;;;;;;44.67;28.60;;;;;;;0.82;75.46;92434.25;5071954;28;20221;-79
2021/12/01 07:40:31;;;;;;;21.03;16.90;;;;;;;0.73;73.75;92420.97;5070483;28;20201;-74
2021/12/01 07:42:56;;;;;;;16.63;15.03;;;;;;;0.55;75.59;92448.53;5069458;28;20201;-74
2021/12/01 07:45:22;;;;;;;14.77;13.57;;;;;;;0.92;73.43;92437.81;5069765;28;20225;-74
2021/12/01 07:47:47;;;;;;;16.30;15.00;;;;;;;0.80;73.46;92464.53;5068350;28;20265;-74
2021/12/01 07:50:13;;;;;;;15.93;14.33;;;;;;;1.11;74.55;92441.84;5071414;28;20225;-75
2021/12/01 07:52:39;;;;;;;16.07;14.43;;;;;;;1.37;71.94;92482.47;5068778;28;20257;-74
2021/12/01 07:55:06;;;;;;;14.23;13.03;;;;;;;1.37;69.06;92471.44;5068605;28;20225;-74
2021/12/01 07:57:32;;;;;;;14.73;13.33;;;;;;;1.16;71.57;92464.28;5071113;28;20201;-75
2021/12/01 07:59:58;;;;;;;14.73;13.33;;;;;;;1.08;70.79;92496.25;5068466;28;20233;-74
2021/12/01 08:02:24;;;;;;;17.90;14.73;;;;;;;1.24;70.71;92494.81;5079154;28;20215;-74
2021/12/01 08:04:51;;;;;;;15.50;14.20;;;;;;;1.31;71.01;92516.81;5067142;28;20245;-74
2021/12/01 08:07:16;;;;;;;16.10;14.83;;;;;;;1.21;70.74;92477.25;5071194;28;20208;-76
2021/12/01 08:09:42;;;;;;;16.00;14.40;;;;;;;1.26;72.96;92493.56;5069871;28;20261;-76
2021/12/01 08:12:11;;;;;;;18.83;15.63;;;;;;;1.18;72.50;92496.47;5069413;28;20196;-75
2021/12/01 08:14:36;;;;;;;15.00;13.70;;;;;;;1.41;71.96;92509.31;5067601;28;20245;-75
2021/12/01 08:17:02;;;;;;;13.07;12.07;;;;;;;1.81;70.31;92475.09;5069111;28;20208;-75
2021/12/01 08:19:27;;;;;;;15.07;13.77;;;;;;;2.31;68.14;92487.13;5068115;28;20209;-75
2021/12/01 08:21:53;;;;;;;15.20;13.90;;;;;;;2.23;70.31;92504.72;5069485;28;20213;-75
2021/12/01 08:24:19;;;;;;;16.57;15.30;;;;;;;2.09;68.18;92511.94;5067156;28;20221;-74
2021/12/01 08:26:45;;;;;;;16.30;14.93;;;;;;;2.03;70.29;92506.94;5069622;28;20200;-75
2021/12/01 08:29:11;;;;;;;14.57;13.47;;;;;;;2.03;69.74;92519.81;5068649;28;21066;-75
2021/12/01 08:31:36;;;;;;;17.80;15.73;;;;;;;1.64;69.19;92498.19;5070019;28;20185;-75
2021/12/01 08:34:02;;;;;;;20.97;18.73;;;;;;;1.38;72.77;92486.63;5067629;28;20217;-75
2021/12/01 08:36:28;;;;;;;19.30;17.30;;;;;;;0.70;73.04;92502.84;5068760;28;20198;-74
2021/12/01 08:38:53;;;;;;;17.43;15.63;;;;;;;0.90;73.34;92478.38;5069343;28;21278;-75
2021/12/01 08:41:19;;;;;;;16.53;14.87;;;;;;;1.16;72.52;92477.94;5068395;28;20217;-75
2021/12/01 08:43:44;;;;;;;18.03;16.13;;;;;;;1.04;74.50;92469.44;5067882;28;20244;-75
2021/12/01 08:46:10;;;;;;;14.97;13.77;;;;;;;1.29;73.15;92487.97;5068036;28;20189;-74
2021/12/01 08:48:36;;;;;;;15.40;13.80;;;;;;;1.37;73.41;92505.63;5068913;28;20240;-74
2021/12/01 08:51:03;;;;;;;15.47;14.07;;;;;;;1.14;72.95;92508.22;5068982;28;20198;-75
2021/12/01 08:53:30;;;;;;;13.60;12.40;;;;;;;1.56;70.48;92486.47;5067918;28;20256;-75
2021/12/01 08:55:57;;;;;;;21.13;16.47;;;;;;;1.31;74.22;92493.69;5068336;28;20178;-75
2021/12/01 08:58:23;;;;;;;14.30;12.90;;;;;;;1.26;75.71;92493.56;5066322;28;20259;-73
2021/12/01 09:00:49;;;;;;;14.17;12.97;;;;;;;1.53;73.60;92494.66;5065294;28;20249;-75
2021/12/01 09:03:17;;;;;;;16.60;14.90;;;;;;;1.67;70.30;92512.44;5067406;28;20200;-76
2021/12/01 09:05:45;;;;;;;16.77;15.13;;;;;;;1.63;71.38;92509.50;5065801;28;20226;-75
2021/12/01 09:08:12;;;;;;;18.00;16.23;;;;;;;1.54;74.27;92505.72;5069229;28;20220;-75
2021/12/01 09:10:38;;;;;;;18.33;16.43;;;;;;;1.54;73.03;92491.06;5068446;28;20189;-76
2021/12/01 09:13:05;;;;;;;19.07;17.27;;;;;;;1.47;74.99;92521.28;5055229;28;20297;-75
2021/12/01 09:15:30;;;;;;;16.47;14.87;;;;;;;1.72;72.19;92507.34;5065942;28;20190;-76
2021/12/01 09:17:57;;;;;;;15.57;14.17;;;;;;;1.97;71.30;92497.56;5068699;28;20233;-77
2021/12/01 09:20:23;;;;;;;16.70;15.17;;;;;;;1.86;73.21;92508.66;5067209;28;20289;-76
2021/12/01 09:22:50;;;;;;;17.23;15.67;;;;;;;2.05;72.38;92517.78;5069888;28;20229;-76
2021/12/01 09:25:16;;;;;;;17.83;16.03;;;;;;;2.10;71.92;92517.88;5065257;28;20262;-76
2021/12/01 09:27:43;;;;;;;18.17;16.37;;;;;;;1.86;71.20;92495.78;5067466;28;20226;-75
2021/12/01 09:30:10;;;;;;;18.87;16.70;;;;;;;2.05;72.63;92503.13;5076827;28;20190;-77
2021/12/01 09:32:37;;;;;;;20.13;16.63;;;;;;;2.09;71.85;92511.16;5067354;28;20292;-76
2021/12/01 09:35:04;;;;;;;16.30;14.70;;;;;;;1.98;71.39;92478.53;5069871;28;20189;-77
2021/12/01 09:37:30;;;;;;;17.53;15.93;;;;;;;2.32;70.75;92503.34;5066230;28;20297;-75
2021/12/01 09:39:55;;;;;;;17.40;15.80;;;;;;;2.17;72.14;92505.66;5068668;28;20197;-75
2021/12/01 09:42:21;;;;;;;19.00;15.77;;;;;;;2.26;71.32;92510.19;5067588;28;20220;-76
2021/12/01 09:44:49;;;;;;;19.40;17.20;;;;;;;2.32;71.78;92531.69;5066099;28;20204;-76
2021/12/01 09:47:18;;;;;;;21.40;18.50;;;;;;;2.37;72.25;92534.34;5067495;28;20245;-76
2021/12/01 09:49:44;;;;;;;21.33;19.13;;;;;;;2.22;73.06;92518.63;5064558;28;20262;-76
2021/12/01 09:52:10;;;;;;;22.33;19.43;;;;;;;2.25;73.70;92516.38;5066839;28;20220;-76
2021/12/01 09:54:36;;;;;;;22.43;19.60;;;;;;;2.18;73.98;92512.38;5067748;28;20196;-76
2021/12/01 09:57:02;;;;;;;25.33;20.77;;;;;;;2.19;75.09;92506.19;5067791;28;20257;-76
2021/12/01 09:59:27;;;;;;;33.33;27.00;;;;;;;2.23;75.03;92491.84;5067690;28;20196;-75
2021/12/01 10:01:53;;;;;;;22.17;19.83;;;;;;;2.42;73.92;92508.66;5067566;28;20320;-75
2021/12/01 10:04:18;;;;;;;24.00;20.40;;;;;;;2.66;72.47;92505.72;5068295;28;20227;-75
2021/12/01 10:06:44;;;;;;;14.63;13.37;;;;;;;2.87;67.59;92496.53;5065970;28;20284;-75
2021/12/01 10:09:10;;;;;;;21.53;19.43;;;;;;;2.72;72.39;92476.47;5066436;28;20189;-74
2021/12/01 10:11:40;;;;;;;22.83;19.53;;;;;;;2.50;73.35;92479.97;5066248;28;20217;-75
2021/12/01 10:14:10;;;;;;;20.03;18.07;;;;;;;2.64;71.73;92497.47;5065988;28;20247;-73
2021/12/01 10:16:40;;;;;;;19.37;17.47;;;;;;;2.32;73.03;92488.66;5067218;28;20233;-75
2021/12/01 10:19:10;;;;;;;19.80;16.20;;;;;;;2.31;73.37;92494.84;5075767;28;20198;-75
2021/12/01 10:21:40;;;;;;;18.33;16.63;;;;;;;2.41;73.45;92514.84;5066564;28;20281;-75
2021/12/01 10:24:17;;;;;;;18.37;16.63;;;;;;;2.31;73.48;92492.25;5065626;28;20198;-74
2021/12/01 10:26:49;;;;;;;17.57;15.77;;;;;;;2.26;72.04;92499.91;5065745;28;20228;-74
2021/12/01 10:29:20;;;;;;;17.43;15.83;;;;;;;2.36;73.44;92515.53;5067749;28;20182;-76
2021/12/01 10:32:01;;;;;;;16.83;15.23;;;;;;;2.23;73.11;92505.50;5065147;28;20249;-78
2021/12/01 10:34:33;;;;;;;21.83;18.83;;;;;;;2.12;74.93;92503.75;5068333;28;20205;-75
2021/12/01 10:37:15;;;;;;;19.23;16.27;;;;;;;2.17;74.91;92501.28;5065769;28;20229;-75
2021/12/01 10:39:44;;;;;;;18.13;16.23;;;;;;;2.45;74.03;92508.19;5066101;28;20185;-74
2021/12/01 10:42:12;;;;;;;17.43;15.73;;;;;;;2.88;71.40;92505.84;5067688;28;20213;-74
2021/12/01 10:44:53;;;;;;;18.47;16.77;;;;;;;3.13;69.21;92507.00;5065484;28;20193;-75
2021/12/01 10:47:18;;;;;;;16.20;14.53;;;;;;;3.30;68.25;92506.97;5065040;28;20293;-75
2021/12/01 10:49:47;;;;;;;17.10;15.53;;;;;;;3.48;67.65;92514.47;5068229;28;20205;-74
2021/12/01 10:52:34;;;;;;;15.93;14.47;;;;;;;3.39;68.39;92515.88;5065290;28;20225;-74
2021/12/01 10:55:05;;;;;;;15.67;14.10;;;;;;;3.33;68.96;92511.69;5066239;28;20186;-75
2021/12/01 10:57:30;;;;;;;15.20;13.93;;;;;;;3.13;70.31;92501.03;5067374;28;20225;-75
2021/12/01 10:59:56;;;;;;;16.00;14.53;;;;;;;3.00;70.25;92465.28;5066215;28;20212;-74
2021/12/01 11:02:22;;;;;;;24.93;19.63;;;;;;;2.98;71.42;92505.97;5067755;28;20245;-73
2021/12/01 11:04:49;;;;;;;21.10;18.03;;;;;;;3.07;70.76;92504.56;5066195;28;20193;-74
2021/12/01 11:07:32;;;;;;;16.50;14.93;;;;;;;3.51;69.06;92470.13;5066298;28;20225;-74
2021/12/01 11:10:10;;;;;;;17.63;15.97;;;;;;;3.53;67.54;92460.34;5068649;28;20205;-73
2021/12/01 11:12:36;;;;;;;16.53;14.90;;;;;;;3.33;70.16;92470.41;5065682;28;20232;-74
2021/12/01 11:15:29;;;;;;;17.80;16.20;;;;;;;3.53;69.37;92465.50;5065744;28;20189;-72
2021/12/01 11:17:56;;;;;;;17.63;16.03;;;;;;;3.45;70.46;92463.31;5066796;28;20257;-73
2021/12/01 11:20:55;;;;;;;18.33;16.53;;;;;;;3.53;70.17;92465.50;5066253;28;20193;-74
2021/12/01 11:23:24;;;;;;;18.50;16.70;;;;;;;3.52;68.32;92479.41;5044218;28;20317;-73
2021/12/01 11:26:11;;;;;;;21.40;16.10;;;;;;;3.47;70.24;92455.34;5069743;28;20200;-74
2021/12/01 11:28:43;;;;;;;18.73;16.83;;;;;;;3.53;68.29;92434.53;5036265;28;20311;-74